createdAt,value
2018-07-08T00:01:37.605Z,123456.00
2018-07-08T00:04:09.593Z,123456.00
2018-07-08T00:06:41.484Z,123456.00
2018-07-08T00:09:13.716Z,123456.00
2018-07-08T00:11:45.585Z,123456.00
2018-07-08T00:14:17.553Z,123456.00
2018-07-08T00:16:49.473Z,123456.00
2018-07-08T00:19:21.488Z,123456.00
2018-07-08T00:21:53.433Z,123456.00
2018-07-08T00:24:25.313Z,123456.00
2018-07-08T00:26:57.163Z,123456.00
2018-07-08T00:29:28.387Z,123456.00
2018-07-08T00:31:59.540Z,123456.00
2018-07-08T00:34:31.176Z,123456.00
2018-07-08T00:37:03.081Z,123456.00
2018-07-08T00:39:35.036Z,123456.00
2018-07-08T00:42:06.493Z,123456.00
2018-07-08T00:44:38.105Z,123456.00
2018-07-08T00:47:09.949Z,123456.00
2018-07-08T00:49:41.938Z,123456.00
2018-07-08T00:52:13.881Z,123456.00
2018-07-08T00:54:45.345Z,123456.00
2018-07-08T00:57:17.012Z,123456.00
2018-07-08T00:59:48.944Z,123456.00
2018-07-08T01:02:20.796Z,123456.00
2018-07-08T01:04:52.720Z,123456.00
2018-07-08T01:07:24.552Z,123456.00
2018-07-08T01:09:56.532Z,123456.00
2018-07-08T01:12:28.452Z,123456.00
2018-07-08T01:15:00.328Z,123456.00
2018-07-08T01:17:32.214Z,123456.00
2018-07-08T01:20:04.365Z,123456.00
2018-07-08T01:22:36.388Z,123456.00
2018-07-08T01:25:18.308Z,123456.00
2018-07-08T01:27:50.146Z,123456.00
2018-07-08T01:30:21.752Z,123456.00
2018-07-08T01:32:53.393Z,123456.00
2018-07-08T01:35:25.332Z,123456.00
2018-07-08T01:37:57.213Z,123456.00
2018-07-08T01:40:28.681Z,123456.00
2018-07-08T01:43:00.296Z,95821.00
2018-07-08T01:45:32.132Z,95819.00
2018-07-08T01:48:04.132Z,95819.00
2018-07-08T01:50:36.087Z,95811.00
2018-07-08T01:53:07.951Z,95813.00
2018-07-08T01:55:39.873Z,95816.00
2018-07-08T01:58:11.245Z,95814.00
2018-07-08T02:00:43.065Z,95811.00
2018-07-08T02:03:15.005Z,95811.00
2018-07-08T02:05:47.213Z,95813.00
2018-07-08T02:08:19.313Z,95810.00
2018-07-08T02:10:51.313Z,95812.00
2018-07-08T02:13:23.163Z,95821.00
2018-07-08T02:15:55.393Z,95817.00
2018-07-08T02:18:26.832Z,95819.00
2018-07-08T02:20:58.612Z,95816.00
2018-07-08T02:23:30.008Z,95815.00
2018-07-08T02:26:01.677Z,95806.00
2018-07-08T02:28:33.128Z,95807.00
2018-07-08T02:31:04.849Z,95811.00
2018-07-08T02:33:36.784Z,95815.00
2018-07-08T02:36:08.662Z,95811.00
2018-07-08T02:38:40.043Z,95811.00
2018-07-08T02:41:11.745Z,95822.00
2018-07-08T02:43:43.799Z,95826.00
2018-07-08T02:46:15.497Z,95821.00
2018-07-08T02:48:47.263Z,95824.00
2018-07-08T02:51:19.395Z,95824.00
2018-07-08T02:53:51.257Z,95817.00
2018-07-08T02:56:23.173Z,95822.00
2018-07-08T02:58:55.041Z,95825.00
2018-07-08T03:01:26.877Z,95820.00
2018-07-08T03:03:58.813Z,95826.00
2018-07-08T03:06:30.493Z,95823.00
2018-07-08T03:09:02.053Z,95821.00
2018-07-08T03:11:33.913Z,95811.00
2018-07-08T03:14:06.063Z,95812.00
2018-07-08T03:16:37.493Z,95810.00
2018-07-08T03:19:09.218Z,95809.00
2018-07-08T03:21:41.130Z,95813.00
2018-07-08T03:24:12.919Z,95812.00
2018-07-08T03:26:44.933Z,95815.00
2018-07-08T03:29:16.869Z,95821.00
2018-07-08T03:31:48.684Z,95820.00
2018-07-08T03:34:20.405Z,95819.00
2018-07-08T03:36:52.312Z,95829.00
2018-07-08T03:39:24.105Z,95823.00
2018-07-08T03:41:55.566Z,95821.00
2018-07-08T03:44:27.712Z,95822.00
2018-07-08T03:46:59.645Z,95821.00
2018-07-08T03:49:31.653Z,95820.00
2018-07-08T03:52:03.713Z,95822.00
2018-07-08T03:54:35.525Z,95820.00
2018-07-08T03:57:07.484Z,95819.00
2018-07-08T03:59:39.353Z,95821.00
2018-07-08T04:02:11.315Z,95819.00
2018-07-08T04:04:43.213Z,95813.00
2018-07-08T04:07:15.169Z,95808.00
2018-07-08T04:09:47.134Z,95802.00
2018-07-08T04:12:18.548Z,95803.00
2018-07-08T04:14:50.236Z,95807.00
2018-07-08T04:17:22.194Z,95807.00
2018-07-08T04:19:54.093Z,95805.00
2018-07-08T04:22:25.963Z,95806.00
2018-07-08T04:24:57.815Z,95811.00
2018-07-08T04:27:29.819Z,95808.00
2018-07-08T04:30:01.713Z,95811.00
2018-07-08T04:32:33.624Z,95814.00
2018-07-08T04:35:06.021Z,95820.00
2018-07-08T04:37:38.015Z,95820.00
2018-07-08T04:40:09.893Z,95820.00
2018-07-08T04:42:41.448Z,95826.00
2018-07-08T04:45:12.630Z,95827.00
2018-07-08T04:47:44.334Z,95828.00
2018-07-08T04:50:16.193Z,95825.00
2018-07-08T04:52:48.138Z,95829.00
2018-07-08T04:55:19.953Z,95833.00
2018-07-08T04:57:51.862Z,95837.00
2018-07-08T05:00:24.053Z,95833.00
2018-07-08T05:02:55.962Z,95831.00
2018-07-08T05:05:27.865Z,95839.00
2018-07-08T05:08:00.733Z,95837.00
2018-07-08T05:10:32.693Z,95844.00
2018-07-08T05:13:04.665Z,95839.00
2018-07-08T05:15:37.266Z,95843.00
2018-07-08T05:18:09.285Z,95843.00
2018-07-08T05:20:41.265Z,95845.00
2018-07-08T05:23:16.148Z,95845.00
2018-07-08T05:25:48.072Z,95841.00
2018-07-08T05:28:20.007Z,95837.00
2018-07-08T05:30:51.929Z,95836.00
2018-07-08T05:33:23.789Z,95827.00
2018-07-08T05:35:55.590Z,95829.00
2018-07-08T05:38:27.561Z,95825.00
2018-07-08T05:40:59.413Z,95828.00
2018-07-08T05:43:31.541Z,95829.00
2018-07-08T05:46:03.606Z,95830.00
2018-07-08T05:48:35.574Z,95831.00
2018-07-08T05:51:07.830Z,95828.00
2018-07-08T05:53:40.515Z,95831.00
2018-07-08T05:56:12.613Z,95826.00
2018-07-08T05:58:44.449Z,95825.00
2018-07-08T06:01:17.118Z,95827.00
2018-07-08T06:03:48.905Z,95834.00
2018-07-08T06:06:20.301Z,95830.00
2018-07-08T06:08:52.013Z,95833.00
2018-07-08T06:11:23.372Z,95822.00
2018-07-08T06:13:55.076Z,95818.00
2018-07-08T06:16:26.625Z,95817.00
2018-07-08T06:18:59.053Z,95816.00
2018-07-08T06:21:30.826Z,95814.00
2018-07-08T06:24:02.765Z,95817.00
2018-07-08T06:26:34.526Z,95816.00
2018-07-08T06:29:06.713Z,95820.00
2018-07-08T06:31:38.499Z,95817.00
2018-07-08T06:34:10.373Z,95814.00
2018-07-08T06:36:42.209Z,95817.00
2018-07-08T06:39:14.118Z,95814.00
2018-07-08T06:41:45.977Z,95811.00
2018-07-08T06:44:17.936Z,95810.00
2018-07-08T06:46:49.320Z,95810.00
2018-07-08T06:49:20.932Z,95806.00
2018-07-08T06:51:52.916Z,95810.00
2018-07-08T06:54:25.006Z,95808.00
2018-07-08T06:56:57.200Z,95809.00
2018-07-08T06:59:29.453Z,95809.00
2018-07-08T07:02:01.446Z,95813.00
2018-07-08T07:04:33.436Z,95809.00
2018-07-08T07:07:05.457Z,95808.00
2018-07-08T07:09:37.425Z,95801.00
2018-07-08T07:12:09.866Z,95800.00
2018-07-08T07:14:41.832Z,95800.00
2018-07-08T07:17:13.830Z,95802.00
2018-07-08T07:19:45.893Z,95799.00
2018-07-08T07:22:17.813Z,95793.00
2018-07-08T07:24:49.880Z,95796.00
2018-07-08T07:27:22.269Z,95788.00
2018-07-08T07:29:54.303Z,95796.00
2018-07-08T07:32:26.485Z,95790.00
2018-07-08T07:34:58.408Z,95793.00
2018-07-08T07:37:30.527Z,95794.00
2018-07-08T07:40:02.465Z,95786.00
2018-07-08T07:42:34.433Z,95792.00
2018-07-08T07:45:07.485Z,95790.00
2018-07-08T07:47:39.333Z,95787.00
2018-07-08T07:50:11.258Z,95786.00
2018-07-08T07:52:43.112Z,95780.00
2018-07-08T07:55:14.981Z,95784.00
2018-07-08T07:57:46.975Z,95781.00
2018-07-08T08:00:19.146Z,95779.00
2018-07-08T08:02:51.074Z,95780.00
2018-07-08T08:05:22.511Z,95776.00
2018-07-08T08:07:54.254Z,95778.00
2018-07-08T08:10:26.474Z,95782.00
2018-07-08T08:12:58.446Z,95775.00
2018-07-08T08:15:30.604Z,95780.00
2018-07-08T08:18:02.546Z,95776.00
2018-07-08T08:20:34.560Z,95773.00
2018-07-08T08:23:06.613Z,95774.00
2018-07-08T08:25:38.509Z,95767.00
2018-07-08T08:28:10.375Z,95763.00
2018-07-08T08:30:42.327Z,95763.00
2018-07-08T08:33:14.276Z,95753.00
2018-07-08T08:35:46.305Z,95753.00
2018-07-08T08:38:18.279Z,95748.00
2018-07-08T08:40:50.222Z,95744.00
2018-07-08T08:43:22.089Z,95748.00
2018-07-08T08:45:54.724Z,95737.00
2018-07-08T08:48:26.634Z,95746.00
2018-07-08T08:50:58.486Z,95735.00
2018-07-08T08:53:30.297Z,95737.00
2018-07-08T08:56:11.619Z,95737.00
2018-07-08T08:58:43.482Z,95739.00
2018-07-08T09:01:15.430Z,95738.00
2018-07-08T09:03:46.972Z,95734.00
2018-07-08T09:06:18.253Z,95736.00
2018-07-08T09:08:50.678Z,95734.00
2018-07-08T09:11:22.706Z,95731.00
2018-07-08T09:13:54.594Z,95732.00
2018-07-08T09:16:26.574Z,95727.00
2018-07-08T09:18:58.414Z,95727.00
2018-07-08T09:21:29.906Z,95731.00
2018-07-08T09:24:01.080Z,95719.00
2018-07-08T09:26:32.874Z,95714.00
2018-07-08T09:29:04.846Z,95717.00
2018-07-08T09:31:36.853Z,95709.00
2018-07-08T09:34:08.781Z,95707.00
2018-07-08T09:36:40.787Z,95708.00
2018-07-08T09:39:14.352Z,95701.00
2018-07-08T09:41:46.850Z,95699.00
2018-07-08T09:44:19.226Z,95703.00
2018-07-08T09:46:51.308Z,95702.00
2018-07-08T09:49:23.173Z,95709.00
2018-07-08T09:51:55.172Z,95713.00
2018-07-08T09:54:26.998Z,95713.00
2018-07-08T09:56:59.025Z,95716.00
2018-07-08T09:59:30.889Z,95717.00
2018-07-08T10:02:02.811Z,95713.00
2018-07-08T10:04:34.800Z,95710.00
2018-07-08T10:07:06.902Z,95709.00
2018-07-08T10:09:38.784Z,95709.00
2018-07-08T10:12:10.269Z,95710.00
2018-07-08T10:14:42.242Z,95711.00
2018-07-08T10:17:14.234Z,95710.00
2018-07-08T10:19:45.790Z,95711.00
2018-07-08T10:22:17.345Z,95710.00
2018-07-08T10:24:49.237Z,95710.00
2018-07-08T10:27:51.369Z,95711.00
2018-07-08T10:30:23.236Z,95713.00
2018-07-08T10:32:55.218Z,95715.00
2018-07-08T10:36:00.565Z,95712.00
2018-07-08T10:38:33.094Z,95706.00
2018-07-08T10:41:05.028Z,95711.00
2018-07-08T10:43:36.818Z,95706.00
2018-07-08T10:46:08.988Z,95714.00
2018-07-08T10:48:41.213Z,95708.00
2018-07-08T10:51:12.643Z,95703.00
2018-07-08T10:53:44.261Z,95700.00
2018-07-08T10:56:15.682Z,95693.00
2018-07-08T10:58:46.906Z,95698.00
2018-07-08T11:01:18.545Z,95696.00
2018-07-08T11:03:50.433Z,95697.00
2018-07-08T11:06:21.777Z,95693.00
2018-07-08T11:08:53.393Z,95691.00
2018-07-08T11:11:25.173Z,95688.00
2018-07-08T11:13:56.668Z,95684.00
2018-07-08T11:16:29.697Z,95686.00
2018-07-08T11:19:05.009Z,95683.00
2018-07-08T11:21:37.213Z,95684.00
2018-07-08T11:24:09.245Z,95681.00
2018-07-08T11:26:41.106Z,95673.00
2018-07-08T11:29:13.066Z,95677.00
2018-07-08T11:31:45.075Z,95676.00
2018-07-08T11:34:17.606Z,95676.00
2018-07-08T11:36:50.711Z,95673.00
2018-07-08T11:39:22.205Z,95670.00
2018-07-08T11:41:53.939Z,95669.00
2018-07-08T11:44:25.865Z,95669.00
2018-07-08T11:46:57.401Z,95668.00
2018-07-08T11:49:28.626Z,95665.00
2018-07-08T11:51:59.874Z,95657.00
2018-07-08T11:54:31.036Z,95661.00
2018-07-08T11:57:02.714Z,95662.00
2018-07-08T11:59:34.666Z,95650.00
2018-07-08T12:02:06.374Z,95653.00
2018-07-08T12:04:38.571Z,95645.00
2018-07-08T12:07:10.313Z,95650.00
2018-07-08T12:09:41.833Z,95643.00
2018-07-08T12:12:13.417Z,95651.00
2018-07-08T12:14:45.320Z,95645.00
2018-07-08T12:17:16.729Z,95648.00
2018-07-08T12:19:49.548Z,95653.00
2018-07-08T12:22:21.431Z,95650.00
2018-07-08T12:24:53.306Z,95645.00
2018-07-08T12:27:25.117Z,95644.00
2018-07-08T12:29:59.842Z,95639.00
2018-07-08T12:32:31.504Z,95631.00
2018-07-08T12:35:03.322Z,95630.00
2018-07-08T12:37:34.781Z,95629.00
2018-07-08T12:40:06.014Z,95627.00
2018-07-08T12:42:37.600Z,95629.00
2018-07-08T12:45:09.201Z,95626.00
2018-07-08T12:47:40.898Z,95636.00
2018-07-08T12:50:12.488Z,95628.00
2018-07-08T12:52:43.926Z,95629.00
2018-07-08T12:55:15.714Z,95626.00
2018-07-08T12:57:47.144Z,95627.00
2018-07-08T13:00:18.942Z,95626.00
2018-07-08T13:02:50.380Z,95631.00
2018-07-08T13:05:22.090Z,95629.00
2018-07-08T13:07:54.017Z,95631.00
2018-07-08T13:10:25.520Z,95629.00
2018-07-08T13:12:57.206Z,95627.00
2018-07-08T13:15:29.453Z,95627.00
2018-07-08T13:18:01.424Z,95627.00
2018-07-08T13:20:33.376Z,95635.00
2018-07-08T13:23:07.128Z,95633.00
2018-07-08T13:25:39.016Z,95643.00
2018-07-08T13:28:10.372Z,95637.00
2018-07-08T13:30:41.547Z,95633.00
2018-07-08T13:33:13.281Z,95630.00
2018-07-08T13:35:45.472Z,95629.00
2018-07-08T13:38:17.647Z,95630.00
2018-07-08T13:40:49.364Z,95626.00
2018-07-08T13:43:21.013Z,95637.00
2018-07-08T13:45:52.933Z,95638.00
2018-07-08T13:48:24.362Z,95644.00
2018-07-08T13:50:55.648Z,95639.00
2018-07-08T13:53:27.275Z,95638.00
2018-07-08T13:55:58.776Z,95639.00
2018-07-08T13:58:30.474Z,95644.00
2018-07-08T14:01:01.999Z,95649.00
2018-07-08T14:03:33.667Z,95656.00
2018-07-08T14:06:06.328Z,95664.00
2018-07-08T14:08:38.350Z,95673.00
2018-07-08T14:11:10.298Z,95678.00
2018-07-08T14:13:43.026Z,95675.00
2018-07-08T14:16:15.025Z,95673.00
2018-07-08T14:18:46.955Z,95684.00
2018-07-08T14:21:18.946Z,95676.00
2018-07-08T14:23:50.939Z,95680.00
2018-07-08T14:26:23.276Z,95683.00
2018-07-08T14:28:54.872Z,95684.00
2018-07-08T14:31:26.567Z,95690.00
2018-07-08T14:33:58.638Z,95696.00
2018-07-08T14:36:30.518Z,95697.00
2018-07-08T14:39:02.462Z,95695.00
2018-07-08T14:41:34.634Z,95693.00
2018-07-08T14:44:07.025Z,95699.00
2018-07-08T14:46:39.361Z,95689.00
2018-07-08T14:49:11.216Z,95678.00
2018-07-08T14:51:43.190Z,95691.00
2018-07-08T14:54:15.460Z,95685.00
2018-07-08T14:56:49.238Z,95688.00
2018-07-08T14:59:20.670Z,95686.00
2018-07-08T15:01:54.092Z,95695.00
2018-07-08T15:04:26.594Z,95694.00
2018-07-08T15:06:58.569Z,95707.00
2018-07-08T15:09:30.525Z,95701.00
2018-07-08T15:12:02.585Z,95700.00
2018-07-08T15:14:34.632Z,95697.00
2018-07-08T15:17:06.574Z,95689.00
2018-07-08T15:19:38.476Z,95685.00
2018-07-08T15:22:10.496Z,95670.00
2018-07-08T15:24:42.313Z,95679.00
2018-07-08T15:27:14.045Z,95673.00
2018-07-08T15:29:45.744Z,95666.00
2018-07-08T15:32:17.204Z,95671.00
2018-07-08T15:34:49.028Z,95681.00
2018-07-08T15:37:21.022Z,95674.00
2018-07-08T15:39:52.492Z,95675.00
2018-07-08T15:42:23.773Z,95673.00
2018-07-08T15:44:55.599Z,95681.00
2018-07-08T15:47:28.074Z,95677.00
2018-07-08T15:49:59.993Z,95673.00
2018-07-08T15:52:33.025Z,95671.00
2018-07-08T15:55:05.181Z,95663.00
2018-07-08T15:57:36.692Z,95656.00
2018-07-08T16:00:07.951Z,95648.00
2018-07-08T16:02:39.639Z,95652.00
2018-07-08T16:05:11.502Z,95657.00
2018-07-08T16:07:43.495Z,95655.00
2018-07-08T16:10:15.361Z,95655.00
2018-07-08T16:12:47.800Z,95661.00
2018-07-08T16:15:21.530Z,95662.00
2018-07-08T16:17:54.357Z,95650.00
2018-07-08T16:20:26.389Z,95653.00
2018-07-08T16:22:58.573Z,95660.00
2018-07-08T16:25:30.601Z,95667.00
2018-07-08T16:28:02.531Z,95668.00
2018-07-08T16:30:34.541Z,95664.00
2018-07-08T16:33:06.649Z,95652.00
2018-07-08T16:35:43.633Z,95657.00
2018-07-08T16:38:16.164Z,95658.00
2018-07-08T16:40:48.092Z,95649.00
2018-07-08T16:43:19.474Z,95654.00
2018-07-08T16:45:51.187Z,95647.00
2018-07-08T16:48:23.347Z,95646.00
2018-07-08T16:50:54.753Z,95645.00
2018-07-08T16:53:26.531Z,95654.00
2018-07-08T16:55:58.367Z,95643.00
2018-07-08T16:58:30.345Z,95645.00
2018-07-08T17:01:02.255Z,95639.00
2018-07-08T17:03:34.547Z,95644.00
2018-07-08T17:06:06.643Z,95646.00
2018-07-08T17:08:38.611Z,95651.00
2018-07-08T17:11:10.065Z,95646.00
2018-07-08T17:13:41.712Z,95646.00
2018-07-08T17:16:13.458Z,95647.00
2018-07-08T17:18:45.513Z,95654.00
2018-07-08T17:21:17.425Z,95654.00
2018-07-08T17:23:49.574Z,95653.00
2018-07-08T17:26:21.556Z,95653.00
2018-07-08T17:28:53.700Z,95653.00
2018-07-08T17:31:25.152Z,95656.00
2018-07-08T17:33:56.867Z,95659.00
2018-07-08T17:36:28.808Z,95671.00
2018-07-08T17:39:00.920Z,95675.00
2018-07-08T17:41:32.343Z,95676.00
2018-07-08T17:44:04.159Z,95671.00
2018-07-08T17:46:36.470Z,95670.00
2018-07-08T17:49:08.432Z,95675.00
2018-07-08T17:51:40.428Z,95680.00
2018-07-08T17:54:11.946Z,95681.00
2018-07-08T17:56:43.103Z,95684.00
2018-07-08T17:59:14.879Z,95678.00
2018-07-08T18:01:46.960Z,95678.00
2018-07-08T18:04:18.672Z,95678.00
2018-07-08T18:06:50.123Z,95679.00
2018-07-08T18:09:21.844Z,95682.00
2018-07-08T18:11:53.831Z,95687.00
2018-07-08T18:14:26.308Z,95682.00
2018-07-08T18:16:58.408Z,95683.00
2018-07-08T18:19:30.886Z,95680.00
2018-07-08T18:22:02.688Z,95683.00
2018-07-08T18:24:34.624Z,95677.00
2018-07-08T18:27:06.123Z,95689.00
2018-07-08T18:29:38.093Z,95694.00
2018-07-08T18:32:10.004Z,95697.00
2018-07-08T18:34:42.094Z,95696.00
2018-07-08T18:37:13.352Z,95690.00
2018-07-08T18:39:45.651Z,95687.00
2018-07-08T18:42:17.820Z,95689.00
2018-07-08T18:44:49.393Z,95688.00
2018-07-08T18:47:21.232Z,95693.00
2018-07-08T18:49:53.327Z,95690.00
2018-07-08T18:52:26.305Z,95699.00
2018-07-08T18:54:58.124Z,95700.00
2018-07-08T18:57:30.351Z,95698.00
2018-07-08T19:00:02.387Z,95698.00
2018-07-08T19:02:33.982Z,95691.00
2018-07-08T19:05:06.201Z,95698.00
2018-07-08T19:07:38.188Z,95705.00
2018-07-08T19:10:10.247Z,95701.00
2018-07-08T19:12:42.301Z,95701.00
2018-07-08T19:15:14.877Z,95704.00
2018-07-08T19:17:46.476Z,95707.00
2018-07-08T19:20:18.333Z,95713.00
2018-07-08T19:22:50.340Z,95711.00
2018-07-08T19:25:23.933Z,95711.00
2018-07-08T19:27:55.627Z,95709.00
2018-07-08T19:30:27.388Z,95709.00
2018-07-08T19:32:59.479Z,95714.00
2018-07-08T19:35:31.906Z,95717.00
2018-07-08T19:38:04.065Z,95715.00
2018-07-08T19:40:35.677Z,95721.00
2018-07-08T19:43:08.326Z,95719.00
2018-07-08T19:45:40.400Z,95727.00
2018-07-08T19:48:12.758Z,95725.00
2018-07-08T19:50:45.787Z,95728.00
2018-07-08T19:53:17.874Z,95726.00
2018-07-08T19:55:50.197Z,95725.00
2018-07-08T19:58:22.206Z,95728.00
2018-07-08T20:00:54.362Z,95732.00
2018-07-08T20:03:26.434Z,95736.00
2018-07-08T20:05:58.645Z,95737.00
2018-07-08T20:08:30.716Z,95742.00
2018-07-08T20:11:02.302Z,95742.00
2018-07-08T20:13:34.475Z,95745.00
2018-07-08T20:16:06.568Z,95744.00
2018-07-08T20:18:38.127Z,95743.00
2018-07-08T20:21:10.090Z,95741.00
2018-07-08T20:23:42.012Z,95734.00
2018-07-08T20:26:14.054Z,95741.00
2018-07-08T20:28:46.051Z,95741.00
2018-07-08T20:31:17.712Z,95750.00
2018-07-08T20:33:49.537Z,95753.00
2018-07-08T20:36:21.526Z,95749.00
2018-07-08T20:38:53.489Z,95755.00
2018-07-08T20:41:26.585Z,95751.00
2018-07-08T20:43:58.624Z,95749.00
2018-07-08T20:46:30.962Z,95746.00
2018-07-08T20:49:02.664Z,95749.00
2018-07-08T20:51:34.437Z,95750.00
2018-07-08T20:54:06.554Z,95756.00
2018-07-08T20:56:38.230Z,95761.00
2018-07-08T20:59:09.895Z,95755.00
2018-07-08T21:01:42.100Z,95758.00
2018-07-08T21:04:14.053Z,95760.00
2018-07-08T21:06:46.406Z,95763.00
2018-07-08T21:09:17.961Z,95764.00
2018-07-08T21:11:49.735Z,95765.00
2018-07-08T21:14:21.684Z,95764.00
2018-07-08T21:16:53.716Z,95767.00
2018-07-08T21:19:25.746Z,95763.00
2018-07-08T21:21:57.879Z,95761.00
2018-07-08T21:24:30.450Z,95758.00
2018-07-08T21:27:02.026Z,95761.00
2018-07-08T21:29:34.086Z,95760.00
2018-07-08T21:32:06.052Z,95762.00
2018-07-08T21:34:37.615Z,95762.00
2018-07-08T21:37:09.348Z,95762.00
2018-07-08T21:39:41.356Z,95761.00
2018-07-08T21:42:13.362Z,95764.00
2018-07-08T21:44:45.855Z,95770.00
2018-07-08T21:47:17.368Z,95770.00
2018-07-08T21:49:48.594Z,95772.00
2018-07-08T21:52:19.884Z,95766.00
2018-07-08T21:54:51.532Z,95773.00
2018-07-08T21:57:23.576Z,95767.00
2018-07-08T21:59:54.958Z,95772.00
2018-07-08T22:02:26.700Z,95767.00
2018-07-08T22:04:58.623Z,95767.00
2018-07-08T22:07:35.803Z,95763.00
2018-07-08T22:10:08.293Z,95768.00
2018-07-08T22:12:40.542Z,95769.00
2018-07-08T22:15:12.533Z,95771.00
2018-07-08T22:17:44.461Z,95768.00
2018-07-08T22:20:16.312Z,95775.00
2018-07-08T22:22:47.855Z,95777.00
2018-07-08T22:25:19.424Z,95777.00
2018-07-08T22:27:51.293Z,95775.00
2018-07-08T22:30:23.166Z,95778.00
2018-07-08T22:32:55.050Z,95777.00
2018-07-08T22:35:26.872Z,95775.00
2018-07-08T22:37:58.818Z,95777.00
2018-07-08T22:40:30.312Z,95778.00
2018-07-08T22:43:02.152Z,95781.00
2018-07-08T22:45:34.812Z,95776.00
2018-07-08T22:48:06.272Z,95774.00
2018-07-08T22:50:37.901Z,95777.00
2018-07-08T22:53:09.792Z,95772.00
2018-07-08T22:55:41.196Z,95778.00
2018-07-08T22:58:13.067Z,95779.00
2018-07-08T23:01:01.402Z,95781.00
2018-07-08T23:04:04.092Z,95779.00
2018-07-08T23:06:35.973Z,95782.00
2018-07-08T23:09:07.954Z,95778.00
2018-07-08T23:11:39.352Z,95779.00
2018-07-08T23:14:11.123Z,95784.00
2018-07-08T23:16:43.141Z,95778.00
2018-07-08T23:19:15.153Z,95776.00
2018-07-08T23:21:47.276Z,95777.00
2018-07-08T23:24:19.291Z,95778.00
2018-07-08T23:26:50.751Z,95773.00
2018-07-08T23:29:22.560Z,95775.00
2018-07-08T23:31:54.538Z,95775.00
2018-07-08T23:34:26.434Z,95773.00
2018-07-08T23:36:57.853Z,95769.00
2018-07-08T23:39:29.634Z,95771.00
2018-07-08T23:42:01.572Z,95771.00
2018-07-08T23:44:33.584Z,95768.00
2018-07-08T23:47:05.060Z,95773.00
2018-07-08T23:49:36.791Z,95771.00
2018-07-08T23:52:08.752Z,95770.00
2018-07-08T23:54:40.238Z,95766.00
2018-07-08T23:57:11.943Z,95766.00
2018-07-08T23:59:43.492Z,95767.00
